createdAt,value
2023-04-22T00:00:09.218Z,99.90
2023-04-22T00:02:37.477Z,99.90
2023-04-22T00:05:06.650Z,99.90
2023-04-22T00:07:34.317Z,99.90
2023-04-22T00:10:01.249Z,99.90
2023-04-22T00:12:28.202Z,99.90
2023-04-22T00:14:55.134Z,99.90
2023-04-22T00:17:22.101Z,99.90
2023-04-22T00:19:49.075Z,99.90
2023-04-22T00:22:16.165Z,99.90
2023-04-22T00:24:43.229Z,99.90
2023-04-22T00:27:10.180Z,99.90
2023-04-22T00:29:37.342Z,99.90
2023-04-22T00:32:04.540Z,99.90
2023-04-22T00:34:31.473Z,99.90
2023-04-22T00:36:58.424Z,99.90
2023-04-22T00:39:25.363Z,99.90
2023-04-22T00:41:52.822Z,99.90
2023-04-22T00:44:19.972Z,99.90
2023-04-22T00:46:47.746Z,99.90
2023-04-22T00:49:16.121Z,99.90
2023-04-22T00:51:43.060Z,99.90
2023-04-22T00:54:10.056Z,99.90
2023-04-22T00:56:39.178Z,99.90
2023-04-22T00:59:06.131Z,99.90
2023-04-22T01:01:33.530Z,99.90
2023-04-22T01:04:01.386Z,99.90
2023-04-22T01:06:32.398Z,99.90
2023-04-22T01:08:59.706Z,99.90
2023-04-22T01:11:26.886Z,99.90
2023-04-22T01:13:54.001Z,99.90
2023-04-22T01:16:22.250Z,99.90
2023-04-22T01:18:49.303Z,1.00
2023-04-22T01:21:17.178Z,1.00
2023-04-22T01:23:44.256Z,1.00
2023-04-22T01:26:11.610Z,1.00
2023-04-22T01:28:38.790Z,1.00
2023-04-22T01:31:05.840Z,1.00
2023-04-22T01:33:33.638Z,1.00
2023-04-22T01:36:00.972Z,1.00
2023-04-22T01:38:28.973Z,1.00
2023-04-22T01:40:56.426Z,1.00
2023-04-22T01:43:23.795Z,1.00
2023-04-22T01:45:50.759Z,1.00
2023-04-22T01:48:17.772Z,1.00
2023-04-22T01:50:45.051Z,1.00
2023-04-22T01:53:11.912Z,1.00
2023-04-22T01:55:39.399Z,1.00
2023-04-22T01:58:06.306Z,1.00
2023-04-22T02:00:33.288Z,1.00
2023-04-22T02:03:00.642Z,1.00
2023-04-22T02:05:28.261Z,1.00
2023-04-22T02:07:55.388Z,1.00
2023-04-22T02:10:22.564Z,1.00
2023-04-22T02:12:49.540Z,1.00
2023-04-22T02:15:16.658Z,1.00
2023-04-22T02:17:43.708Z,1.00
2023-04-22T02:20:14.244Z,1.00
2023-04-22T02:22:43.711Z,1.00
2023-04-22T02:25:12.325Z,1.00
2023-04-22T02:27:39.533Z,1.00
2023-04-22T02:30:07.558Z,1.00
2023-04-22T02:32:36.902Z,1.00
2023-04-22T02:35:05.387Z,1.00
2023-04-22T02:37:32.326Z,1.00
2023-04-22T02:39:59.221Z,1.00
2023-04-22T02:42:26.126Z,1.00
2023-04-22T02:44:52.983Z,1.00
2023-04-22T02:47:20.052Z,1.00
2023-04-22T02:49:46.894Z,1.00
2023-04-22T02:52:13.840Z,1.00
2023-04-22T02:54:40.715Z,1.00
2023-04-22T02:57:07.773Z,1.00
2023-04-22T02:59:36.051Z,1.00
2023-04-22T03:02:05.242Z,1.00
2023-04-22T03:04:33.801Z,1.00
2023-04-22T03:07:00.787Z,1.00
2023-04-22T03:09:27.659Z,1.00
2023-04-22T03:11:56.334Z,1.00
2023-04-22T03:14:23.215Z,1.00
2023-04-22T03:16:50.379Z,1.00
2023-04-22T03:19:17.277Z,1.00
2023-04-22T03:21:44.197Z,1.00
2023-04-22T03:24:11.101Z,1.00
2023-04-22T03:26:38.024Z,1.00
2023-04-22T03:29:04.969Z,1.00
2023-04-22T03:31:31.870Z,1.00
2023-04-22T03:33:58.883Z,1.00
2023-04-22T03:36:27.462Z,1.00
2023-04-22T03:38:54.392Z,1.00
2023-04-22T03:41:21.249Z,1.00
2023-04-22T03:43:48.304Z,1.00
2023-04-22T03:46:16.120Z,1.00
2023-04-22T03:48:43.139Z,1.00
2023-04-22T03:51:10.107Z,1.00
2023-04-22T03:53:37.004Z,1.00
2023-04-22T03:56:04.327Z,1.00
2023-04-22T03:58:31.279Z,1.00
2023-04-22T04:00:58.178Z,1.00
2023-04-22T04:03:26.572Z,1.00
2023-04-22T04:05:54.970Z,1.00
2023-04-22T04:08:22.206Z,1.00
2023-04-22T04:10:49.101Z,1.00
2023-04-22T04:13:15.961Z,1.00
2023-04-22T04:15:43.129Z,1.00
2023-04-22T04:18:11.722Z,1.00
2023-04-22T04:20:38.745Z,1.00
2023-04-22T04:23:05.627Z,1.00
2023-04-22T04:25:37.826Z,1.00
2023-04-22T04:28:11.267Z,1.00
2023-04-22T04:30:38.448Z,1.00
2023-04-22T04:33:07.473Z,1.00
2023-04-22T04:35:36.048Z,1.00
2023-04-22T04:38:03.000Z,1.00
2023-04-22T04:40:30.682Z,1.00
2023-04-22T04:42:57.813Z,99.90
2023-04-22T04:45:25.106Z,99.90
2023-04-22T04:47:55.660Z,99.90
2023-04-22T04:50:23.039Z,1.00
2023-04-22T04:52:50.159Z,99.90
2023-04-22T04:55:18.045Z,1.90
2023-04-22T04:57:45.769Z,99.90
2023-04-22T05:00:16.403Z,99.90
2023-04-22T05:02:43.552Z,99.90
2023-04-22T05:05:10.814Z,99.90
2023-04-22T05:07:37.822Z,99.90
2023-04-22T05:10:05.149Z,99.90
2023-04-22T05:12:32.065Z,99.90
2023-04-22T05:14:59.000Z,99.90
2023-04-22T05:17:26.104Z,99.90
2023-04-22T05:19:53.101Z,99.90
2023-04-22T05:22:20.641Z,99.90
2023-04-22T05:24:47.640Z,99.90
2023-04-22T05:27:14.604Z,99.90
2023-04-22T05:29:42.018Z,99.90
2023-04-22T05:32:09.302Z,99.90
2023-04-22T05:34:36.467Z,1.00
2023-04-22T05:37:04.333Z,1.00
2023-04-22T05:39:31.381Z,99.90
2023-04-22T05:41:58.839Z,86.20
2023-04-22T05:44:25.822Z,1.00
2023-04-22T05:46:52.733Z,99.90
2023-04-22T05:49:19.736Z,1.00
2023-04-22T05:51:46.681Z,1.00
2023-04-22T05:54:13.621Z,99.90
2023-04-22T05:56:40.716Z,99.90
2023-04-22T05:59:07.921Z,99.90
2023-04-22T06:01:38.649Z,99.90
2023-04-22T06:04:06.561Z,99.90
2023-04-22T06:06:33.812Z,1.00
2023-04-22T06:09:00.883Z,1.00
2023-04-22T06:11:28.533Z,99.90
2023-04-22T06:13:55.472Z,99.90
2023-04-22T06:16:23.447Z,99.90
2023-04-22T06:18:50.455Z,99.90
2023-04-22T06:21:17.440Z,99.90
2023-04-22T06:23:44.383Z,99.90
2023-04-22T06:26:11.656Z,16.80
2023-04-22T06:28:38.717Z,1.00
2023-04-22T06:31:05.829Z,99.90
2023-04-22T06:33:32.746Z,99.90
2023-04-22T06:36:00.221Z,99.90
2023-04-22T06:38:27.121Z,99.90
2023-04-22T06:40:54.011Z,99.90
2023-04-22T06:43:21.360Z,99.90
2023-04-22T06:45:48.314Z,99.90
2023-04-22T06:48:15.275Z,99.90
2023-04-22T06:50:42.198Z,99.90
2023-04-22T06:53:10.119Z,99.90
2023-04-22T06:55:37.202Z,99.90
2023-04-22T06:58:04.171Z,99.90
2023-04-22T07:00:31.071Z,99.90
2023-04-22T07:02:58.388Z,99.90
2023-04-22T07:05:25.521Z,99.90
2023-04-22T07:07:52.562Z,99.90
2023-04-22T07:10:19.562Z,99.90
2023-04-22T07:12:46.555Z,99.90
2023-04-22T07:15:13.536Z,99.90
2023-04-22T07:17:40.738Z,99.90
2023-04-22T07:20:08.461Z,99.90
2023-04-22T07:22:35.421Z,99.90
2023-04-22T07:25:02.608Z,99.90
2023-04-22T07:27:29.579Z,99.90
2023-04-22T07:29:56.508Z,99.90
2023-04-22T07:32:23.488Z,99.90
2023-04-22T07:34:50.465Z,99.90
2023-04-22T07:37:17.380Z,99.90
2023-04-22T07:39:44.300Z,99.90
2023-04-22T07:42:11.937Z,99.90
2023-04-22T07:44:39.619Z,99.90
2023-04-22T07:47:08.651Z,99.90
2023-04-22T07:49:35.718Z,99.90
2023-04-22T07:52:02.750Z,99.90
2023-04-22T07:54:29.649Z,99.90
2023-04-22T07:56:58.417Z,99.90
2023-04-22T07:59:25.746Z,99.90
2023-04-22T08:01:52.698Z,99.90
2023-04-22T08:04:24.407Z,99.90
2023-04-22T08:06:51.549Z,99.90
2023-04-22T08:09:18.445Z,97.60
2023-04-22T08:11:45.414Z,99.90
2023-04-22T08:14:12.349Z,96.90
2023-04-22T08:16:40.526Z,99.90
2023-04-22T08:19:07.501Z,99.90
2023-04-22T08:21:37.372Z,99.90
2023-04-22T08:24:04.406Z,99.90
2023-04-22T08:30:19.989Z,97.40
2023-04-22T08:32:47.651Z,99.90
2023-04-22T08:35:14.725Z,99.90
2023-04-22T08:37:42.322Z,99.90
2023-04-22T08:40:09.651Z,91.10
2023-04-22T08:42:37.831Z,94.20
2023-04-22T08:45:05.924Z,86.60
2023-04-22T08:47:35.682Z,68.30
2023-04-22T08:50:04.528Z,73.70
2023-04-22T08:52:31.890Z,73.70
2023-04-22T08:54:59.268Z,68.80
2023-04-22T08:57:26.908Z,62.70
2023-04-22T08:59:55.746Z,87.60
2023-04-22T09:02:24.526Z,85.70
2023-04-22T09:04:56.092Z,61.80
2023-04-22T09:07:28.405Z,59.70
2023-04-22T09:09:56.124Z,64.50
2023-04-22T09:12:24.892Z,49.00
2023-04-22T09:14:53.096Z,50.70
2023-04-22T09:17:33.484Z,49.10
2023-04-22T09:20:06.281Z,64.00
2023-04-22T09:22:45.571Z,58.50
2023-04-22T09:25:20.085Z,55.90
2023-04-22T09:27:51.790Z,71.70
2023-04-22T09:30:40.074Z,68.10
2023-04-22T09:33:07.963Z,95.60
2023-04-22T09:35:40.107Z,92.10
2023-04-22T09:38:09.200Z,91.50
2023-04-22T09:40:37.534Z,93.50
2023-04-22T09:43:07.434Z,99.50
2023-04-22T09:45:41.611Z,91.70
2023-04-22T09:48:17.640Z,99.90
2023-04-22T09:50:46.535Z,99.90
2023-04-22T09:53:16.704Z,96.60
2023-04-22T09:55:55.695Z,99.90
2023-04-22T09:58:27.818Z,92.10
2023-04-22T10:00:58.126Z,96.30
2023-04-22T10:03:25.155Z,94.70
2023-04-22T10:05:52.426Z,94.40
2023-04-22T10:08:19.490Z,90.30
2023-04-22T10:10:46.976Z,99.90
2023-04-22T10:13:14.059Z,91.60
2023-04-22T10:15:51.674Z,82.90
2023-04-22T10:18:28.879Z,97.20
2023-04-22T10:20:57.290Z,93.50
2023-04-22T10:23:25.261Z,95.80
2023-04-22T10:25:55.030Z,84.80
2023-04-22T10:28:23.435Z,80.90
2023-04-22T10:30:52.046Z,96.00
2023-04-22T10:33:21.908Z,91.50
2023-04-22T10:36:10.002Z,90.70
2023-04-22T10:38:42.349Z,82.30
2023-04-22T10:41:16.048Z,77.30
2023-04-22T10:43:48.133Z,78.30
2023-04-22T10:46:34.772Z,69.10
2023-04-22T10:49:11.844Z,97.20
2023-04-22T10:51:50.484Z,88.30
2023-04-22T10:54:32.193Z,81.70
2023-04-22T10:57:13.047Z,88.40
2023-04-22T10:59:54.040Z,72.10
2023-04-22T11:02:22.770Z,66.90
2023-04-22T11:04:50.689Z,64.20
2023-04-22T11:07:26.887Z,66.80
2023-04-22T11:10:04.459Z,60.10
2023-04-22T11:12:39.959Z,79.10
2023-04-22T11:15:11.653Z,85.50
2023-04-22T11:17:40.325Z,87.20
2023-04-22T11:20:08.709Z,92.60
2023-04-22T11:22:36.788Z,55.50
2023-04-22T11:25:05.678Z,85.80
2023-04-22T11:27:33.153Z,74.70
2023-04-22T11:30:09.038Z,59.50
2023-04-22T11:32:37.950Z,76.40
2023-04-22T11:35:10.284Z,94.00
2023-04-22T11:37:47.473Z,58.70
2023-04-22T11:42:56.246Z,51.30
2023-04-22T11:45:23.872Z,49.30
2023-04-22T11:47:52.588Z,58.30
2023-04-22T11:50:29.230Z,66.40
2023-04-22T11:53:23.902Z,30.20
2023-04-22T11:55:52.281Z,41.00
2023-04-22T11:58:25.506Z,22.90
2023-04-22T12:00:53.881Z,23.00
2023-04-22T12:03:29.003Z,82.70
2023-04-22T12:06:01.581Z,99.90
2023-04-22T12:08:42.425Z,99.90
2023-04-22T12:11:11.600Z,99.90
2023-04-22T12:13:38.493Z,99.90
2023-04-22T12:16:10.168Z,99.90
2023-04-22T12:18:48.008Z,99.90
2023-04-22T12:21:17.520Z,99.90
2023-04-22T12:23:48.938Z,99.90
2023-04-22T12:26:17.551Z,99.90
2023-04-22T12:28:45.641Z,99.90
2023-04-22T12:31:14.816Z,99.90
2023-04-22T12:33:42.141Z,99.90
2023-04-22T12:36:09.685Z,99.90
2023-04-22T12:38:37.251Z,99.90
2023-04-22T12:41:05.527Z,99.90
2023-04-22T12:43:36.468Z,99.90
2023-04-22T12:46:04.876Z,99.90
2023-04-22T12:48:32.589Z,99.90
2023-04-22T12:51:00.279Z,99.90
2023-04-22T12:53:28.210Z,13.90
2023-04-22T12:55:55.911Z,99.90
2023-04-22T12:58:22.941Z,99.90
2023-04-22T13:00:49.839Z,99.90
2023-04-22T13:03:16.988Z,99.90
2023-04-22T13:05:45.419Z,99.90
2023-04-22T13:08:12.314Z,29.50
2023-04-22T13:10:39.363Z,99.90
2023-04-22T13:15:39.142Z,99.90
2023-04-22T13:18:06.357Z,1.00
2023-04-22T13:20:33.434Z,99.90
2023-04-22T13:23:02.294Z,1.00
2023-04-22T13:25:29.323Z,99.90
2023-04-22T13:27:56.241Z,99.90
2023-04-22T13:30:23.204Z,45.10
2023-04-22T13:32:50.139Z,99.90
2023-04-22T13:35:18.592Z,1.00
2023-04-22T13:37:46.450Z,20.60
2023-04-22T13:40:13.472Z,1.00
2023-04-22T13:42:40.568Z,99.90
2023-04-22T13:45:08.375Z,99.90
2023-04-22T13:47:35.518Z,99.90
2023-04-22T13:50:02.687Z,99.90
2023-04-22T13:52:29.649Z,99.90
2023-04-22T13:54:56.579Z,99.90
2023-04-22T13:57:23.557Z,96.20
2023-04-22T13:59:50.942Z,99.90
2023-04-22T14:02:18.229Z,99.90
2023-04-22T14:04:45.361Z,99.90
2023-04-22T14:07:13.188Z,1.00
2023-04-22T14:09:40.184Z,99.90
2023-04-22T14:12:08.127Z,1.00
2023-04-22T14:14:35.116Z,99.90
2023-04-22T14:17:02.309Z,4.50
2023-04-22T14:19:30.535Z,99.90
2023-04-22T14:21:58.211Z,99.90
2023-04-22T14:24:25.599Z,1.00
2023-04-22T14:26:52.931Z,99.90
2023-04-22T14:29:20.134Z,99.90
2023-04-22T14:31:47.133Z,99.90
2023-04-22T14:34:14.009Z,1.00
2023-04-22T14:36:41.053Z,73.60
2023-04-22T14:39:07.962Z,84.70
2023-04-22T14:41:35.201Z,83.30
2023-04-22T14:44:02.183Z,84.80
2023-04-22T14:46:30.580Z,85.10
2023-04-22T14:48:57.522Z,84.30
2023-04-22T14:51:24.716Z,84.50
2023-04-22T14:53:51.718Z,84.40
2023-04-22T14:56:19.037Z,86.50
2023-04-22T14:58:46.636Z,87.50
2023-04-22T15:01:13.660Z,88.70
2023-04-22T15:03:41.075Z,90.80
2023-04-22T15:06:08.343Z,90.30
2023-04-22T15:08:35.567Z,91.60
2023-04-22T15:11:02.633Z,91.00
2023-04-22T15:13:29.542Z,90.80
2023-04-22T15:15:57.353Z,90.70
2023-04-22T15:18:25.078Z,91.70
2023-04-22T15:20:51.944Z,90.70
2023-04-22T15:23:18.849Z,90.80
2023-04-22T15:25:46.067Z,90.10
2023-04-22T15:28:12.998Z,89.60
2023-04-22T15:30:40.878Z,88.70
2023-04-22T15:33:07.928Z,89.40
2023-04-22T15:35:34.889Z,87.90
2023-04-22T15:38:03.049Z,88.00
2023-04-22T15:40:30.137Z,89.10
2023-04-22T15:42:57.080Z,89.20
2023-04-22T15:45:24.063Z,88.00
2023-04-22T15:47:52.514Z,87.10
2023-04-22T15:50:20.233Z,89.50
2023-04-22T15:52:47.131Z,86.30
2023-04-22T15:55:14.124Z,83.50
2023-04-22T15:57:41.048Z,82.90
2023-04-22T16:00:12.450Z,81.10
2023-04-22T16:02:41.592Z,75.50
2023-04-22T16:05:09.112Z,76.50
2023-04-22T16:07:36.248Z,73.40
2023-04-22T16:10:03.253Z,74.80
2023-04-22T16:12:31.983Z,75.10
2023-04-22T16:15:00.411Z,76.00
2023-04-22T16:17:27.558Z,80.40
2023-04-22T16:19:55.233Z,83.60
2023-04-22T16:22:22.173Z,83.60
2023-04-22T16:24:49.329Z,83.50
2023-04-22T16:27:18.513Z,85.40
2023-04-22T16:29:45.931Z,85.00
2023-04-22T16:32:12.979Z,84.20
2023-04-22T16:34:40.150Z,86.00
2023-04-22T16:37:08.576Z,88.00
2023-04-22T16:39:35.629Z,90.30
2023-04-22T16:42:03.178Z,91.40
2023-04-22T16:44:30.175Z,93.60
2023-04-22T16:46:57.209Z,94.40
2023-04-22T16:49:24.163Z,95.90
2023-04-22T16:51:51.165Z,97.00
2023-04-22T16:54:18.153Z,99.50
2023-04-22T16:56:45.063Z,99.90
2023-04-22T16:59:12.027Z,99.90
2023-04-22T17:01:40.910Z,99.90
2023-04-22T17:04:08.879Z,99.90
2023-04-22T17:06:37.730Z,99.90
2023-04-22T17:09:06.859Z,99.90
2023-04-22T17:11:33.820Z,99.90
2023-04-22T17:14:01.016Z,99.90
2023-04-22T17:16:28.183Z,1.00
2023-04-22T17:18:55.338Z,1.00
2023-04-22T17:21:25.391Z,1.00
2023-04-22T17:23:52.636Z,56.50
2023-04-22T17:26:19.526Z,99.90
2023-04-22T17:28:46.559Z,99.90
2023-04-22T17:31:13.640Z,72.20
2023-04-22T17:33:41.313Z,1.00
2023-04-22T17:36:08.393Z,99.90
2023-04-22T17:38:35.805Z,99.90
2023-04-22T17:41:02.795Z,99.90
2023-04-22T17:43:29.891Z,99.90
2023-04-22T17:45:57.014Z,1.00
2023-04-22T17:48:23.959Z,1.00
2023-04-22T17:50:51.080Z,1.00
2023-04-22T17:53:18.066Z,99.90
2023-04-22T17:55:45.014Z,99.90
2023-04-22T17:58:12.152Z,1.00
2023-04-22T18:00:39.750Z,14.90
2023-04-22T18:03:06.916Z,99.90
2023-04-22T18:05:34.100Z,99.90
2023-04-22T18:08:02.948Z,99.90
2023-04-22T18:10:30.667Z,99.90
2023-04-22T18:12:57.875Z,99.90
2023-04-22T18:15:24.810Z,99.90
2023-04-22T18:17:52.049Z,99.90
2023-04-22T18:20:19.938Z,99.90
2023-04-22T18:22:48.620Z,99.90
2023-04-22T18:25:16.562Z,99.90
2023-04-22T18:27:44.338Z,1.00
2023-04-22T18:30:11.666Z,1.00
2023-04-22T18:32:38.972Z,1.00
2023-04-22T18:35:06.467Z,1.00
2023-04-22T18:37:34.988Z,1.00
2023-04-22T18:40:02.835Z,1.00
2023-04-22T18:42:30.361Z,1.00
2023-04-22T18:44:57.457Z,1.00
2023-04-22T18:47:24.541Z,1.00
2023-04-22T18:49:51.498Z,1.00
2023-04-22T18:52:18.749Z,1.00
2023-04-22T18:54:45.772Z,1.00
2023-04-22T18:57:13.200Z,1.00
2023-04-22T18:59:40.149Z,1.00
2023-04-22T19:02:07.133Z,1.00
2023-04-22T19:04:34.250Z,1.00
2023-04-22T19:07:01.210Z,1.00
2023-04-22T19:09:28.199Z,1.00
2023-04-22T19:11:55.925Z,1.00
2023-04-22T19:14:22.903Z,1.00
2023-04-22T19:16:49.894Z,1.00
2023-04-22T19:19:16.821Z,1.00
2023-04-22T19:21:43.948Z,1.00
2023-04-22T19:24:13.708Z,1.00
2023-04-22T19:26:41.439Z,4.20
2023-04-22T19:29:08.817Z,8.00
2023-04-22T19:31:35.869Z,14.00
2023-04-22T19:34:03.179Z,12.20
2023-04-22T19:36:30.123Z,11.00
2023-04-22T19:38:57.091Z,9.20
2023-04-22T19:41:24.734Z,14.30
2023-04-22T19:43:51.690Z,16.50
2023-04-22T19:46:18.648Z,20.70
2023-04-22T19:48:45.941Z,28.90
2023-04-22T19:51:13.303Z,31.20
2023-04-22T19:53:41.602Z,35.60
2023-04-22T19:56:12.043Z,40.40
2023-04-22T19:58:39.714Z,49.70
2023-04-22T20:01:06.860Z,53.30
2023-04-22T20:03:34.288Z,52.00
2023-04-22T20:06:01.868Z,49.80
2023-04-22T20:08:29.809Z,52.80
2023-04-22T20:10:58.419Z,54.10
2023-04-22T20:13:26.297Z,57.20
2023-04-22T20:15:53.563Z,53.50
2023-04-22T20:18:20.709Z,58.30
2023-04-22T20:20:49.180Z,59.50
2023-04-22T20:23:20.896Z,64.90
2023-04-22T20:25:49.021Z,65.10
2023-04-22T20:28:16.069Z,66.00
2023-04-22T20:30:43.348Z,70.60
2023-04-22T20:33:12.756Z,74.00
2023-04-22T20:35:41.570Z,76.40
2023-04-22T20:38:12.532Z,74.20
2023-04-22T20:40:40.455Z,79.70
2023-04-22T20:43:07.864Z,80.70
2023-04-22T20:45:35.257Z,86.50
2023-04-22T20:48:02.549Z,84.70
2023-04-22T20:50:33.554Z,90.60
2023-04-22T20:53:01.277Z,92.00
2023-04-22T20:55:28.268Z,91.60
2023-04-22T20:57:55.197Z,90.20
2023-04-22T21:00:22.490Z,92.40
2023-04-22T21:02:50.436Z,94.20
2023-04-22T21:05:17.996Z,96.80
2023-04-22T21:07:52.134Z,94.80
2023-04-22T21:10:22.648Z,94.20
2023-04-22T21:12:50.140Z,95.40
2023-04-22T21:15:17.526Z,96.60
2023-04-22T21:17:54.367Z,96.40
2023-04-22T21:20:24.426Z,97.80
2023-04-22T21:22:53.333Z,97.30
2023-04-22T21:25:22.252Z,97.20
2023-04-22T21:27:49.672Z,98.70
2023-04-22T21:30:17.179Z,98.60
2023-04-22T21:32:44.214Z,99.90
2023-04-22T21:35:11.416Z,99.00
2023-04-22T21:37:38.416Z,99.90
2023-04-22T21:40:09.664Z,99.90
2023-04-22T21:42:36.563Z,99.90
2023-04-22T21:45:04.506Z,99.90
2023-04-22T21:47:31.576Z,99.90
2023-04-22T21:49:58.485Z,99.90
2023-04-22T21:52:25.593Z,99.90
2023-04-22T21:54:52.485Z,99.90
2023-04-22T21:57:19.484Z,99.90
2023-04-22T21:59:46.347Z,99.90
2023-04-22T22:02:13.338Z,99.90
2023-04-22T22:04:40.669Z,99.90
2023-04-22T22:07:07.822Z,99.90
2023-04-22T22:09:34.908Z,99.90
2023-04-22T22:12:01.995Z,99.90
2023-04-22T22:14:28.942Z,99.90
2023-04-22T22:16:55.960Z,99.90
2023-04-22T22:19:23.927Z,99.90
2023-04-22T22:21:51.359Z,99.50
2023-04-22T22:24:18.338Z,99.90
2023-04-22T22:26:45.317Z,99.90
2023-04-22T22:29:15.653Z,99.90
2023-04-22T22:31:44.205Z,99.90
2023-04-22T22:34:11.462Z,99.90
2023-04-22T22:36:38.426Z,99.90
2023-04-22T22:39:05.451Z,99.90
2023-04-22T22:41:32.438Z,99.90
2023-04-22T22:43:59.415Z,99.90
2023-04-22T22:46:26.487Z,99.90
2023-04-22T22:48:53.576Z,99.90
2023-04-22T22:51:21.225Z,99.90
2023-04-22T22:53:48.153Z,99.90
2023-04-22T22:56:15.578Z,99.90
2023-04-22T22:58:42.543Z,99.90
2023-04-22T23:01:09.641Z,99.90
2023-04-22T23:03:37.230Z,99.90
2023-04-22T23:06:04.613Z,99.90
2023-04-22T23:08:31.555Z,99.90
2023-04-22T23:10:58.401Z,99.90
2023-04-22T23:13:25.294Z,99.90
2023-04-22T23:15:52.471Z,99.90
2023-04-22T23:18:19.537Z,99.90
2023-04-22T23:20:50.014Z,99.90
2023-04-22T23:23:18.185Z,99.90
2023-04-22T23:25:46.966Z,99.90
2023-04-22T23:28:14.194Z,99.90
2023-04-22T23:30:41.779Z,99.90
2023-04-22T23:33:12.526Z,99.90
2023-04-22T23:35:41.666Z,99.90
2023-04-22T23:38:11.117Z,99.00
2023-04-22T23:40:38.053Z,95.00
2023-04-22T23:43:04.985Z,96.20
2023-04-22T23:45:32.036Z,96.10
2023-04-22T23:47:58.978Z,93.50
2023-04-22T23:50:25.913Z,90.30
2023-04-22T23:52:52.865Z,83.00
2023-04-22T23:55:20.042Z,74.30
2023-04-22T23:57:47.223Z,73.20
